createdAt,value
2019-03-13T00:03:19.305Z,9.93
2019-03-13T00:08:34.138Z,6.93
2019-03-13T00:13:45.843Z,6.23
2019-03-13T00:19:03.757Z,6.57
2019-03-13T00:24:28.881Z,7.00
2019-03-13T00:29:46.825Z,8.60
2019-03-13T00:35:29.920Z,8.37
2019-03-13T00:40:16.196Z,9.87
2019-03-13T00:45:30.707Z,10.63
2019-03-13T00:50:59.118Z,8.97
2019-03-13T00:55:59.848Z,8.53
2019-03-13T01:01:50.943Z,8.50
2019-03-13T01:07:21.062Z,7.67
2019-03-13T01:12:26.380Z,9.03
2019-03-13T01:17:53.652Z,8.73
2019-03-13T01:23:31.171Z,11.17
2019-03-13T01:28:41.578Z,9.83
2019-03-13T01:39:55.038Z,13.93
2019-03-13T01:45:07.852Z,13.90
2019-03-13T01:50:31.704Z,11.90
2019-03-13T01:55:34.711Z,7.97
2019-03-13T02:00:59.335Z,7.70
2019-03-13T02:06:10.247Z,11.10
2019-03-13T02:11:35.022Z,11.27
2019-03-13T02:17:16.550Z,11.73
2019-03-13T02:22:47.842Z,13.37
2019-03-13T02:27:57.878Z,9.73
2019-03-13T02:33:29.735Z,11.53
2019-03-13T02:38:48.119Z,10.67
2019-03-13T02:44:04.632Z,9.93
2019-03-13T02:49:54.296Z,12.03
2019-03-13T02:54:46.960Z,11.10
2019-03-13T03:00:08.179Z,13.70
2019-03-13T03:05:23.851Z,12.30
2019-03-13T03:15:47.998Z,15.00
2019-03-13T03:21:03.233Z,16.27
2019-03-13T03:26:10.621Z,11.83
2019-03-13T03:31:42.442Z,15.77
2019-03-13T03:37:14.219Z,13.07
2019-03-13T03:42:32.046Z,13.77
2019-03-13T03:47:58.691Z,16.30
2019-03-13T03:53:31.938Z,13.07
2019-03-13T03:58:56.312Z,13.83
2019-03-13T04:04:12.828Z,22.40
2019-03-13T04:09:33.563Z,11.60
2019-03-13T04:15:06.522Z,14.80
2019-03-13T04:20:47.519Z,16.33
2019-03-13T04:26:26.095Z,17.33
2019-03-13T04:32:00.149Z,17.97
2019-03-13T04:48:05.686Z,18.53
2019-03-13T04:53:33.746Z,16.87
2019-03-13T04:58:43.797Z,19.23
2019-03-13T05:04:07.321Z,19.27
2019-03-13T05:09:19.833Z,25.30
2019-03-13T05:14:38.942Z,19.83
2019-03-13T05:20:37.551Z,19.60
2019-03-13T05:25:27.077Z,15.83
2019-03-13T05:30:38.869Z,12.23
2019-03-13T05:35:48.818Z,20.53
2019-03-13T05:41:29.740Z,18.57
2019-03-13T05:46:49.393Z,16.30
2019-03-13T05:52:15.465Z,21.27
2019-03-13T05:57:23.378Z,19.80
2019-03-13T06:02:34.642Z,23.57
2019-03-13T06:07:59.508Z,18.13
2019-03-13T06:13:14.726Z,20.30
2019-03-13T06:18:32.935Z,18.97
2019-03-13T06:23:50.018Z,13.47
2019-03-13T06:29:03.494Z,14.80
2019-03-13T06:34:20.033Z,15.83
2019-03-13T06:39:32.806Z,25.00
2019-03-13T06:44:58.976Z,20.77
2019-03-13T06:50:16.292Z,30.10
2019-03-13T06:55:55.846Z,23.97
2019-03-13T07:07:10.015Z,21.60
2019-03-13T07:12:59.949Z,24.50
2019-03-13T07:18:29.995Z,24.87
2019-03-13T07:23:41.587Z,19.37
2019-03-13T07:29:15.304Z,19.30
2019-03-13T07:34:55.842Z,25.83
2019-03-13T07:39:55.922Z,28.40
2019-03-13T07:45:29.155Z,19.97
2019-03-13T07:50:56.284Z,22.53
2019-03-13T07:56:23.353Z,24.37
2019-03-13T08:02:20.884Z,23.70
2019-03-13T08:07:51.522Z,22.83
2019-03-13T08:13:30.539Z,21.13
2019-03-13T08:19:12.715Z,22.93
2019-03-13T08:24:35.945Z,21.97
2019-03-13T08:30:26.463Z,22.87
2019-03-13T08:41:34.623Z,17.17
2019-03-13T08:47:05.194Z,15.50
2019-03-13T08:52:29.815Z,25.20
2019-03-13T08:58:26.190Z,20.00
2019-03-13T09:04:12.915Z,21.50
2019-03-13T09:09:46.395Z,19.60
2019-03-13T09:14:57.029Z,17.63
2019-03-13T09:20:18.766Z,20.37
2019-03-13T09:25:54.027Z,21.50
2019-03-13T09:31:20.944Z,26.73
2019-03-13T09:36:46.397Z,19.87
2019-03-13T09:42:05.345Z,24.00
2019-03-13T09:47:36.934Z,23.00
2019-03-13T09:53:11.317Z,16.90
2019-03-13T09:59:05.623Z,24.07
2019-03-13T10:04:50.622Z,21.67
2019-03-13T10:09:44.833Z,21.17
2019-03-13T10:15:23.747Z,21.97
2019-03-13T10:20:40.221Z,20.93
2019-03-13T10:26:18.173Z,22.03
2019-03-13T10:31:46.646Z,23.10
2019-03-13T10:37:03.732Z,24.43
2019-03-13T10:42:29.206Z,17.00
2019-03-13T10:47:47.730Z,18.90
2019-03-13T10:53:21.235Z,18.73
2019-03-13T10:59:06.476Z,25.53
2019-03-13T11:04:48.810Z,32.60
2019-03-13T11:10:27.391Z,12.50
2019-03-13T11:15:39.837Z,17.57
2019-03-13T11:20:59.336Z,19.70
2019-03-13T11:26:33.010Z,17.30
2019-03-13T11:32:02.641Z,17.80
2019-03-13T11:37:23.154Z,21.67
2019-03-13T11:42:54.872Z,17.13
2019-03-13T11:48:38.185Z,19.90
2019-03-13T11:54:32.553Z,22.53
2019-03-13T11:59:34.809Z,15.53
2019-03-13T12:05:21.111Z,20.83
2019-03-13T12:11:10.109Z,25.03
2019-03-13T12:16:37.008Z,18.50
2019-03-13T12:22:09.672Z,24.47
2019-03-13T12:27:53.436Z,18.03
2019-03-13T12:33:24.671Z,20.83
2019-03-13T12:39:02.999Z,17.63
2019-03-13T12:44:51.498Z,22.77
2019-03-13T12:50:24.133Z,29.80
2019-03-13T12:55:51.872Z,23.17
2019-03-13T13:01:36.800Z,18.47
2019-03-13T13:07:25.709Z,23.57
2019-03-13T13:12:55.422Z,17.60
2019-03-13T13:18:28.725Z,19.93
2019-03-13T13:24:06.356Z,15.13
2019-03-13T13:28:56.346Z,10.63
2019-03-13T13:34:36.155Z,14.40
2019-03-13T13:39:45.772Z,10.03
2019-03-13T13:44:58.246Z,11.53
2019-03-13T13:50:08.638Z,13.17
2019-03-13T13:55:19.561Z,15.70
2019-03-13T14:00:30.498Z,14.03
2019-03-13T14:05:43.206Z,17.17
2019-03-13T14:10:54.088Z,14.70
2019-03-13T14:16:08.073Z,11.83
2019-03-13T14:21:14.924Z,15.53
2019-03-13T14:26:24.690Z,16.00
2019-03-13T14:31:38.166Z,10.77
2019-03-13T14:36:50.872Z,10.43
2019-03-13T14:42:04.266Z,10.77
2019-03-13T14:47:11.436Z,10.80
2019-03-13T14:52:25.008Z,7.47
2019-03-13T14:57:33.830Z,9.90
2019-03-13T15:02:45.540Z,9.43
2019-03-13T15:08:01.111Z,15.10
2019-03-13T15:13:13.642Z,12.97
2019-03-13T15:18:24.422Z,13.73
2019-03-13T15:23:32.249Z,12.77
2019-03-13T15:28:43.085Z,15.53
2019-03-13T15:33:50.623Z,15.53
2019-03-13T15:39:04.074Z,16.50
2019-03-13T15:44:15.208Z,13.30
2019-03-13T15:49:28.256Z,13.97
2019-03-13T15:54:35.804Z,11.67
2019-03-13T15:59:49.197Z,13.07
2019-03-13T16:05:02.667Z,12.63
2019-03-13T16:10:16.744Z,15.47
2019-03-13T16:15:26.576Z,16.07
2019-03-13T16:20:39.172Z,14.70
2019-03-13T16:25:53.747Z,13.73
2019-03-13T16:31:04.484Z,16.60
2019-03-13T16:36:17.039Z,13.63
2019-03-13T16:41:26.927Z,15.10
2019-03-13T16:46:38.636Z,15.47
2019-03-13T16:51:47.678Z,14.30
2019-03-13T16:56:57.543Z,16.97
2019-03-13T17:02:08.482Z,12.90
2019-03-13T17:07:19.273Z,14.23
2019-03-13T17:12:47.885Z,17.20
2019-03-13T17:18:16.568Z,11.63
2019-03-13T17:23:23.954Z,10.13
2019-03-13T17:28:32.934Z,16.50
2019-03-13T17:33:45.415Z,11.97
2019-03-13T17:39:02.984Z,16.60
2019-03-13T17:44:18.340Z,10.63
2019-03-13T17:49:30.862Z,18.90
2019-03-13T17:54:38.231Z,15.47
2019-03-13T17:59:47.998Z,18.63
2019-03-13T18:05:01.351Z,11.10
2019-03-13T18:10:14.129Z,16.20
2019-03-13T18:15:25.857Z,15.47
2019-03-13T18:20:38.550Z,15.93
2019-03-13T18:25:51.291Z,11.67
2019-03-13T18:31:01.835Z,14.27
2019-03-13T18:36:14.035Z,15.75
2019-03-13T18:41:26.927Z,10.70
2019-03-13T18:46:42.217Z,15.63
2019-03-13T18:51:56.556Z,12.03
2019-03-13T18:57:10.031Z,11.20
2019-03-13T19:03:14.724Z,17.10
2019-03-13T19:08:26.993Z,19.60
2019-03-13T19:13:39.019Z,18.23
2019-03-13T19:18:53.480Z,15.77
2019-03-13T19:24:07.014Z,14.43
2019-03-13T19:29:19.593Z,19.90
2019-03-13T19:34:30.415Z,16.43
2019-03-13T19:39:42.021Z,20.80
2019-03-13T19:44:58.629Z,15.60
2019-03-13T19:50:08.502Z,21.17
2019-03-13T19:55:18.441Z,20.68
2019-03-13T20:00:28.315Z,13.13
2019-03-13T20:05:45.279Z,22.13
2019-03-13T20:10:47.112Z,16.17
2019-03-13T20:15:54.970Z,20.87
2019-03-13T20:21:05.766Z,17.00
2019-03-13T20:26:19.272Z,23.57
2019-03-13T20:31:28.682Z,18.27
2019-03-13T20:36:42.084Z,20.23
2019-03-13T20:42:32.774Z,20.27
2019-03-13T20:47:46.216Z,22.57
2019-03-13T20:52:57.060Z,13.13
2019-03-13T20:58:29.129Z,21.00
2019-03-13T21:04:03.126Z,18.80
2019-03-13T21:09:02.764Z,17.93
2019-03-13T21:14:07.112Z,15.93
2019-03-13T21:19:10.737Z,18.02
2019-03-13T21:24:28.350Z,12.67
2019-03-13T21:29:34.380Z,20.00
2019-03-13T21:34:46.612Z,11.53
2019-03-13T21:39:59.686Z,19.20
2019-03-13T21:45:20.981Z,17.80
2019-03-13T21:50:19.780Z,15.30
2019-03-13T21:55:30.314Z,14.98
2019-03-13T22:00:39.888Z,19.77
2019-03-13T22:05:49.479Z,19.97
2019-03-13T22:11:07.310Z,15.97
2019-03-13T22:16:12.368Z,13.30
2019-03-13T22:21:36.721Z,15.50
2019-03-13T22:27:15.300Z,13.30
2019-03-13T22:32:19.191Z,12.73
2019-03-13T22:37:29.960Z,13.63
2019-03-13T22:43:15.144Z,16.20
2019-03-13T22:47:59.024Z,20.83
2019-03-13T22:53:03.025Z,19.17
2019-03-13T22:58:11.338Z,14.87
2019-03-13T23:03:29.978Z,23.98
2019-03-13T23:08:53.589Z,18.80
2019-03-13T23:14:01.895Z,18.40
2019-03-13T23:19:17.359Z,17.83
2019-03-13T23:24:41.163Z,20.80
2019-03-13T23:29:59.593Z,25.33
2019-03-13T23:35:11.861Z,24.13
2019-03-13T23:40:41.600Z,22.40
2019-03-13T23:51:40.697Z,17.57
2019-03-13T23:57:01.564Z,23.10
